<?xml version="1.0" encoding="UTF-8" standalone="no" ?>
<gpx xmlns="http://www.topografix.com/GPX/1/1" xmlns:xsi="http://www.w3.org/2001/XMLSchema-instance" xsi:schemaLocation="http://www.topografix.com/GPX/1/1 http://www.topografix.com/GPX/1/1/gpx.xsd" version="1.1" creator="VisuGPX - https://www.visugpx.com">
  <metadata>
    <name>Île de la Platiere - Circuit N°1</name>
    <desc><![CDATA["La forêt vagabonde" au départ de l'aire de stationnement de l'Île de la Platière. Accès à la réserve et l'observatoire en traversant la lône par le bac à chaine]]></desc>
  </metadata>
  <trk>
    <name><![CDATA[Platière-Circuit N°1]]></name>
    <trkseg>
      <trkpt lat="45.35314" lon="4.78117">
        <ele>135.178</ele>
        <time>2017-09-04T13:01:26Z</time>
      </trkpt>
      <trkpt lat="45.35313" lon="4.78113">
        <ele>135.315</ele>
        <time>2017-09-04T13:01:29Z</time>
      </trkpt>
      <trkpt lat="45.35312" lon="4.78106">
        <ele>134.714</ele>
        <time>2017-09-04T13:01:34Z</time>
      </trkpt>
      <trkpt lat="45.35311" lon="4.78101">
        <ele>134.785</ele>
        <time>2017-09-04T13:01:38Z</time>
      </trkpt>
      <trkpt lat="45.35307" lon="4.78097">
        <ele>134.323</ele>
        <time>2017-09-04T13:01:43Z</time>
      </trkpt>
      <trkpt lat="45.35296" lon="4.78096">
        <ele>134.212</ele>
        <time>2017-09-04T13:01:53Z</time>
      </trkpt>
      <trkpt lat="45.35291" lon="4.78093">
        <ele>134.34</ele>
        <time>2017-09-04T13:01:58Z</time>
      </trkpt>
      <trkpt lat="45.35275" lon="4.78052">
        <ele>133.566</ele>
        <time>2017-09-04T13:02:22Z</time>
      </trkpt>
      <trkpt lat="45.35271" lon="4.78032">
        <ele>133.835</ele>
        <time>2017-09-04T13:02:39Z</time>
      </trkpt>
      <trkpt lat="45.35266" lon="4.78014">
        <ele>133.256</ele>
        <time>2017-09-04T13:02:51Z</time>
      </trkpt>
      <trkpt lat="45.3526" lon="4.77996">
        <ele>133.482</ele>
        <time>2017-09-04T13:03:10Z</time>
      </trkpt>
      <trkpt lat="45.3526" lon="4.77981">
        <ele>133.38</ele>
        <time>2017-09-04T13:03:23Z</time>
      </trkpt>
      <trkpt lat="45.35255" lon="4.77965">
        <ele>133.097</ele>
        <time>2017-09-04T13:03:34Z</time>
      </trkpt>
      <trkpt lat="45.35249" lon="4.77941">
        <ele>133.443</ele>
        <time>2017-09-04T13:03:47Z</time>
      </trkpt>
      <trkpt lat="45.35242" lon="4.77906">
        <ele>133.097</ele>
        <time>2017-09-04T13:04:08Z</time>
      </trkpt>
      <trkpt lat="45.3524" lon="4.77903">
        <ele>133.285</ele>
        <time>2017-09-04T13:04:10Z</time>
      </trkpt>
      <trkpt lat="45.35235" lon="4.77875">
        <ele>133.064</ele>
        <time>2017-09-04T13:04:28Z</time>
      </trkpt>
      <trkpt lat="45.35231" lon="4.77855">
        <ele>133.323</ele>
        <time>2017-09-04T13:04:44Z</time>
      </trkpt>
      <trkpt lat="45.35226" lon="4.77834">
        <ele>132.912</ele>
        <time>2017-09-04T13:04:56Z</time>
      </trkpt>
      <trkpt lat="45.35221" lon="4.77816">
        <ele>133.45</ele>
        <time>2017-09-04T13:05:08Z</time>
      </trkpt>
      <trkpt lat="45.35219" lon="4.77805">
        <ele>133.588</ele>
        <time>2017-09-04T13:05:16Z</time>
      </trkpt>
      <trkpt lat="45.35211" lon="4.77771">
        <ele>133.675</ele>
        <time>2017-09-04T13:05:34Z</time>
      </trkpt>
      <trkpt lat="45.35208" lon="4.77764">
        <ele>133.409</ele>
        <time>2017-09-04T13:05:38Z</time>
      </trkpt>
      <trkpt lat="45.352" lon="4.77731">
        <ele>133.646</ele>
        <time>2017-09-04T13:05:56Z</time>
      </trkpt>
      <trkpt lat="45.35196" lon="4.77702">
        <ele>133.199</ele>
        <time>2017-09-04T13:06:13Z</time>
      </trkpt>
      <trkpt lat="45.35192" lon="4.77689">
        <ele>133.654</ele>
        <time>2017-09-04T13:06:23Z</time>
      </trkpt>
      <trkpt lat="45.35192" lon="4.77686">
        <ele>133.287</ele>
        <time>2017-09-04T13:06:25Z</time>
      </trkpt>
      <trkpt lat="45.35189" lon="4.77674">
        <ele>133.439</ele>
        <time>2017-09-04T13:06:32Z</time>
      </trkpt>
      <trkpt lat="45.35186" lon="4.77664">
        <ele>133.268</ele>
        <time>2017-09-04T13:06:39Z</time>
      </trkpt>
      <trkpt lat="45.35182" lon="4.77643">
        <ele>132.704</ele>
        <time>2017-09-04T13:06:54Z</time>
      </trkpt>
      <trkpt lat="45.35181" lon="4.77641">
        <ele>132.707</ele>
        <time>2017-09-04T13:06:55Z</time>
      </trkpt>
      <trkpt lat="45.35182" lon="4.77634">
        <ele>132.877</ele>
        <time>2017-09-04T13:06:59Z</time>
      </trkpt>
      <trkpt lat="45.35177" lon="4.77608">
        <ele>133.204</ele>
        <time>2017-09-04T13:07:13Z</time>
      </trkpt>
      <trkpt lat="45.35174" lon="4.77586">
        <ele>133.596</ele>
        <time>2017-09-04T13:07:26Z</time>
      </trkpt>
      <trkpt lat="45.35168" lon="4.77559">
        <ele>133.087</ele>
        <time>2017-09-04T13:07:41Z</time>
      </trkpt>
      <trkpt lat="45.35165" lon="4.77547">
        <ele>133.089</ele>
        <time>2017-09-04T13:07:48Z</time>
      </trkpt>
      <trkpt lat="45.3516" lon="4.77529">
        <ele>133.096</ele>
        <time>2017-09-04T13:08:01Z</time>
      </trkpt>
      <trkpt lat="45.3516" lon="4.77527">
        <ele>133.288</ele>
        <time>2017-09-04T13:08:22Z</time>
      </trkpt>
      <trkpt lat="45.35155" lon="4.77499">
        <ele>133.817</ele>
        <time>2017-09-04T13:08:39Z</time>
      </trkpt>
      <trkpt lat="45.35154" lon="4.77495">
        <ele>133.936</ele>
        <time>2017-09-04T13:08:42Z</time>
      </trkpt>
      <trkpt lat="45.35153" lon="4.7749">
        <ele>133.416</ele>
        <time>2017-09-04T13:08:46Z</time>
      </trkpt>
      <trkpt lat="45.35148" lon="4.77472">
        <ele>133.573</ele>
        <time>2017-09-04T13:08:58Z</time>
      </trkpt>
      <trkpt lat="45.35148" lon="4.77465">
        <ele>133.436</ele>
        <time>2017-09-04T13:09:03Z</time>
      </trkpt>
      <trkpt lat="45.35149" lon="4.77459">
        <ele>133.111</ele>
        <time>2017-09-04T13:09:06Z</time>
      </trkpt>
      <trkpt lat="45.35155" lon="4.77443">
        <ele>132.088</ele>
        <time>2017-09-04T13:09:21Z</time>
      </trkpt>
      <trkpt lat="45.35152" lon="4.77437">
        <ele>131.874</ele>
        <time>2017-09-04T13:09:34Z</time>
      </trkpt>
      <trkpt lat="45.35143" lon="4.77433">
        <ele>131.224</ele>
        <time>2017-09-04T13:09:54Z</time>
      </trkpt>
      <trkpt lat="45.35139" lon="4.77435">
        <ele>131.058</ele>
        <time>2017-09-04T13:10:15Z</time>
      </trkpt>
      <trkpt lat="45.35132" lon="4.77443">
        <ele>130.584</ele>
        <time>2017-09-04T13:10:26Z</time>
      </trkpt>
      <trkpt lat="45.35129" lon="4.77437">
        <ele>130.138</ele>
        <time>2017-09-04T13:10:39Z</time>
      </trkpt>
      <trkpt lat="45.35125" lon="4.77437">
        <ele>130.287</ele>
        <time>2017-09-04T13:12:12Z</time>
      </trkpt>
      <trkpt lat="45.3512" lon="4.77429">
        <ele>130.259</ele>
        <time>2017-09-04T13:12:37Z</time>
      </trkpt>
      <trkpt lat="45.35119" lon="4.77422">
        <ele>129.805</ele>
        <time>2017-09-04T13:12:50Z</time>
      </trkpt>
      <trkpt lat="45.35117" lon="4.77417">
        <ele>130.386</ele>
        <time>2017-09-04T13:13:02Z</time>
      </trkpt>
      <trkpt lat="45.35117" lon="4.77413">
        <ele>130.524</ele>
        <time>2017-09-04T13:13:15Z</time>
      </trkpt>
      <trkpt lat="45.35115" lon="4.77411">
        <ele>130.163</ele>
        <time>2017-09-04T13:13:30Z</time>
      </trkpt>
      <trkpt lat="45.35112" lon="4.7741">
        <ele>130.466</ele>
        <time>2017-09-04T13:13:42Z</time>
      </trkpt>
      <trkpt lat="45.35113" lon="4.77406">
        <ele>130.39</ele>
        <time>2017-09-04T13:14:19Z</time>
      </trkpt>
      <trkpt lat="45.35111" lon="4.77401">
        <ele>130.264</ele>
        <time>2017-09-04T13:14:30Z</time>
      </trkpt>
      <trkpt lat="45.35108" lon="4.77396">
        <ele>131.122</ele>
        <time>2017-09-04T13:14:44Z</time>
      </trkpt>
      <trkpt lat="45.35101" lon="4.77383">
        <ele>131.659</ele>
        <time>2017-09-04T13:14:57Z</time>
      </trkpt>
      <trkpt lat="45.35099" lon="4.77382">
        <ele>132.191</ele>
        <time>2017-09-04T13:15:00Z</time>
      </trkpt>
      <trkpt lat="45.35086" lon="4.77373">
        <ele>132.717</ele>
        <time>2017-09-04T13:15:15Z</time>
      </trkpt>
      <trkpt lat="45.35089" lon="4.77371">
        <ele>133.627</ele>
        <time>2017-09-04T13:15:23Z</time>
      </trkpt>
      <trkpt lat="45.351" lon="4.77371">
        <ele>133.849</ele>
        <time>2017-09-04T13:15:37Z</time>
      </trkpt>
      <trkpt lat="45.35112" lon="4.77369">
        <ele>134.853</ele>
        <time>2017-09-04T13:15:50Z</time>
      </trkpt>
      <trkpt lat="45.35121" lon="4.77355">
        <ele>134.35</ele>
        <time>2017-09-04T13:16:03Z</time>
      </trkpt>
      <trkpt lat="45.3512" lon="4.77339">
        <ele>133.767</ele>
        <time>2017-09-04T13:16:18Z</time>
      </trkpt>
      <trkpt lat="45.35114" lon="4.7733">
        <ele>134.102</ele>
        <time>2017-09-04T13:16:31Z</time>
      </trkpt>
      <trkpt lat="45.35108" lon="4.77328">
        <ele>134.346</ele>
        <time>2017-09-04T13:16:37Z</time>
      </trkpt>
      <trkpt lat="45.35095" lon="4.77318">
        <ele>134.44</ele>
        <time>2017-09-04T13:16:50Z</time>
      </trkpt>
      <trkpt lat="45.35089" lon="4.77316">
        <ele>134.398</ele>
        <time>2017-09-04T13:16:55Z</time>
      </trkpt>
      <trkpt lat="45.35076" lon="4.77313">
        <ele>134.766</ele>
        <time>2017-09-04T13:17:07Z</time>
      </trkpt>
      <trkpt lat="45.35069" lon="4.77314">
        <ele>135.264</ele>
        <time>2017-09-04T13:17:14Z</time>
      </trkpt>
      <trkpt lat="45.35066" lon="4.77311">
        <ele>134.978</ele>
        <time>2017-09-04T13:17:20Z</time>
      </trkpt>
      <trkpt lat="45.35054" lon="4.77307">
        <ele>134.879</ele>
        <time>2017-09-04T13:17:34Z</time>
      </trkpt>
      <trkpt lat="45.35044" lon="4.77307">
        <ele>135.369</ele>
        <time>2017-09-04T13:17:44Z</time>
      </trkpt>
      <trkpt lat="45.3504" lon="4.77306">
        <ele>135.164</ele>
        <time>2017-09-04T13:17:47Z</time>
      </trkpt>
      <trkpt lat="45.35036" lon="4.77305">
        <ele>135.05</ele>
        <time>2017-09-04T13:17:50Z</time>
      </trkpt>
      <trkpt lat="45.35015" lon="4.77302">
        <ele>135.031</ele>
        <time>2017-09-04T13:18:07Z</time>
      </trkpt>
      <trkpt lat="45.35008" lon="4.77301">
        <ele>135.083</ele>
        <time>2017-09-04T13:18:15Z</time>
      </trkpt>
      <trkpt lat="45.35001" lon="4.77297">
        <ele>135.25</ele>
        <time>2017-09-04T13:18:23Z</time>
      </trkpt>
      <trkpt lat="45.34994" lon="4.77289">
        <ele>135.339</ele>
        <time>2017-09-04T13:18:31Z</time>
      </trkpt>
      <trkpt lat="45.34984" lon="4.7727">
        <ele>134.866</ele>
        <time>2017-09-04T13:18:48Z</time>
      </trkpt>
      <trkpt lat="45.34983" lon="4.77263">
        <ele>134.742</ele>
        <time>2017-09-04T13:18:53Z</time>
      </trkpt>
      <trkpt lat="45.34982" lon="4.77256">
        <ele>134.576</ele>
        <time>2017-09-04T13:18:57Z</time>
      </trkpt>
      <trkpt lat="45.34983" lon="4.7723">
        <ele>135.15</ele>
        <time>2017-09-04T13:19:11Z</time>
      </trkpt>
      <trkpt lat="45.34983" lon="4.77218">
        <ele>135.222</ele>
        <time>2017-09-04T13:19:27Z</time>
      </trkpt>
      <trkpt lat="45.34981" lon="4.77198">
        <ele>135.079</ele>
        <time>2017-09-04T13:19:42Z</time>
      </trkpt>
      <trkpt lat="45.34983" lon="4.77185">
        <ele>135.173</ele>
        <time>2017-09-04T13:19:59Z</time>
      </trkpt>
      <trkpt lat="45.34983" lon="4.77163">
        <ele>136.065</ele>
        <time>2017-09-04T13:20:48Z</time>
      </trkpt>
      <trkpt lat="45.34982" lon="4.77146">
        <ele>135.87</ele>
        <time>2017-09-04T13:20:59Z</time>
      </trkpt>
      <trkpt lat="45.34979" lon="4.77126">
        <ele>136.547</ele>
        <time>2017-09-04T13:21:09Z</time>
      </trkpt>
      <trkpt lat="45.3498" lon="4.77105">
        <ele>135.984</ele>
        <time>2017-09-04T13:21:22Z</time>
      </trkpt>
      <trkpt lat="45.34978" lon="4.77085">
        <ele>135.762</ele>
        <time>2017-09-04T13:21:33Z</time>
      </trkpt>
      <trkpt lat="45.34982" lon="4.77076">
        <ele>136.257</ele>
        <time>2017-09-04T13:21:40Z</time>
      </trkpt>
      <trkpt lat="45.34982" lon="4.77061">
        <ele>136.148</ele>
        <time>2017-09-04T13:21:52Z</time>
      </trkpt>
      <trkpt lat="45.34984" lon="4.77051">
        <ele>136.168</ele>
        <time>2017-09-04T13:22:26Z</time>
      </trkpt>
      <trkpt lat="45.34979" lon="4.77038">
        <ele>136.134</ele>
        <time>2017-09-04T13:22:40Z</time>
      </trkpt>
      <trkpt lat="45.3498" lon="4.77032">
        <ele>136.264</ele>
        <time>2017-09-04T13:23:08Z</time>
      </trkpt>
      <trkpt lat="45.34983" lon="4.77032">
        <ele>135.826</ele>
        <time>2017-09-04T13:23:13Z</time>
      </trkpt>
      <trkpt lat="45.34998" lon="4.77026">
        <ele>136.413</ele>
        <time>2017-09-04T13:23:28Z</time>
      </trkpt>
      <trkpt lat="45.35002" lon="4.77027">
        <ele>136.521</ele>
        <time>2017-09-04T13:23:34Z</time>
      </trkpt>
      <trkpt lat="45.35007" lon="4.77045">
        <ele>136.592</ele>
        <time>2017-09-04T13:23:46Z</time>
      </trkpt>
      <trkpt lat="45.35018" lon="4.7706">
        <ele>136.627</ele>
        <time>2017-09-04T13:24:01Z</time>
      </trkpt>
      <trkpt lat="45.35031" lon="4.77072">
        <ele>136.461</ele>
        <time>2017-09-04T13:24:14Z</time>
      </trkpt>
      <trkpt lat="45.35031" lon="4.77075">
        <ele>136.309</ele>
        <time>2017-09-04T13:24:16Z</time>
      </trkpt>
      <trkpt lat="45.35037" lon="4.7709">
        <ele>136.777</ele>
        <time>2017-09-04T13:24:27Z</time>
      </trkpt>
      <trkpt lat="45.35046" lon="4.77092">
        <ele>136.355</ele>
        <time>2017-09-04T13:24:41Z</time>
      </trkpt>
      <trkpt lat="45.35056" lon="4.7709">
        <ele>136.077</ele>
        <time>2017-09-04T13:24:53Z</time>
      </trkpt>
      <trkpt lat="45.35064" lon="4.77093">
        <ele>136.783</ele>
        <time>2017-09-04T13:25:07Z</time>
      </trkpt>
      <trkpt lat="45.35067" lon="4.77091">
        <ele>136.434</ele>
        <time>2017-09-04T13:25:11Z</time>
      </trkpt>
      <trkpt lat="45.35081" lon="4.77097">
        <ele>136.536</ele>
        <time>2017-09-04T13:25:24Z</time>
      </trkpt>
      <trkpt lat="45.35086" lon="4.77103">
        <ele>136.839</ele>
        <time>2017-09-04T13:25:40Z</time>
      </trkpt>
      <trkpt lat="45.35096" lon="4.7711">
        <ele>136.838</ele>
        <time>2017-09-04T13:26:22Z</time>
      </trkpt>
      <trkpt lat="45.35103" lon="4.7711">
        <ele>137.101</ele>
        <time>2017-09-04T13:26:30Z</time>
      </trkpt>
      <trkpt lat="45.3511" lon="4.77109">
        <ele>136.652</ele>
        <time>2017-09-04T13:26:37Z</time>
      </trkpt>
      <trkpt lat="45.35113" lon="4.77109">
        <ele>137.048</ele>
        <time>2017-09-04T13:26:39Z</time>
      </trkpt>
      <trkpt lat="45.35121" lon="4.77108">
        <ele>137.036</ele>
        <time>2017-09-04T13:26:49Z</time>
      </trkpt>
      <trkpt lat="45.35127" lon="4.77107">
        <ele>137.128</ele>
        <time>2017-09-04T13:26:54Z</time>
      </trkpt>
      <trkpt lat="45.35137" lon="4.77103">
        <ele>136.735</ele>
        <time>2017-09-04T13:27:02Z</time>
      </trkpt>
      <trkpt lat="45.35146" lon="4.771">
        <ele>136.731</ele>
        <time>2017-09-04T13:27:15Z</time>
      </trkpt>
      <trkpt lat="45.35157" lon="4.77101">
        <ele>136.741</ele>
        <time>2017-09-04T13:27:28Z</time>
      </trkpt>
      <trkpt lat="45.35159" lon="4.77098">
        <ele>136.603</ele>
        <time>2017-09-04T13:27:39Z</time>
      </trkpt>
      <trkpt lat="45.35156" lon="4.77093">
        <ele>136.56</ele>
        <time>2017-09-04T13:27:44Z</time>
      </trkpt>
      <trkpt lat="45.35154" lon="4.77072">
        <ele>136.607</ele>
        <time>2017-09-04T13:28:01Z</time>
      </trkpt>
      <trkpt lat="45.35148" lon="4.77053">
        <ele>136.815</ele>
        <time>2017-09-04T13:28:13Z</time>
      </trkpt>
      <trkpt lat="45.35146" lon="4.77036">
        <ele>137.387</ele>
        <time>2017-09-04T13:28:32Z</time>
      </trkpt>
      <trkpt lat="45.3515" lon="4.77031">
        <ele>136.995</ele>
        <time>2017-09-04T13:28:48Z</time>
      </trkpt>
      <trkpt lat="45.35149" lon="4.77028">
        <ele>136.858</ele>
        <time>2017-09-04T13:29:06Z</time>
      </trkpt>
      <trkpt lat="45.35151" lon="4.77026">
        <ele>136.216</ele>
        <time>2017-09-04T13:38:26Z</time>
      </trkpt>
      <trkpt lat="45.35155" lon="4.77023">
        <ele>130.005</ele>
        <time>2017-09-04T15:02:50Z</time>
      </trkpt>
      <trkpt lat="45.35151" lon="4.77024">
        <ele>128.523</ele>
        <time>2017-09-04T15:38:42Z</time>
      </trkpt>
      <trkpt lat="45.35149" lon="4.77027">
        <ele>129.423</ele>
        <time>2017-09-04T15:38:54Z</time>
      </trkpt>
      <trkpt lat="45.35149" lon="4.7704">
        <ele>129.117</ele>
        <time>2017-09-04T15:39:09Z</time>
      </trkpt>
      <trkpt lat="45.35147" lon="4.77054">
        <ele>128.718</ele>
        <time>2017-09-04T15:39:22Z</time>
      </trkpt>
      <trkpt lat="45.35147" lon="4.77058">
        <ele>128.093</ele>
        <time>2017-09-04T15:39:25Z</time>
      </trkpt>
      <trkpt lat="45.35148" lon="4.77061">
        <ele>128.14</ele>
        <time>2017-09-04T15:39:27Z</time>
      </trkpt>
      <trkpt lat="45.35152" lon="4.77071">
        <ele>128.763</ele>
        <time>2017-09-04T15:39:40Z</time>
      </trkpt>
      <trkpt lat="45.35153" lon="4.7708">
        <ele>128.565</ele>
        <time>2017-09-04T15:39:48Z</time>
      </trkpt>
      <trkpt lat="45.35159" lon="4.77088">
        <ele>128.485</ele>
        <time>2017-09-04T15:39:57Z</time>
      </trkpt>
      <trkpt lat="45.35163" lon="4.77088">
        <ele>128.587</ele>
        <time>2017-09-04T15:40:01Z</time>
      </trkpt>
      <trkpt lat="45.35176" lon="4.77094">
        <ele>128.833</ele>
        <time>2017-09-04T15:40:17Z</time>
      </trkpt>
      <trkpt lat="45.35178" lon="4.77099">
        <ele>128.707</ele>
        <time>2017-09-04T15:40:22Z</time>
      </trkpt>
      <trkpt lat="45.35188" lon="4.77102">
        <ele>128.865</ele>
        <time>2017-09-04T15:40:34Z</time>
      </trkpt>
      <trkpt lat="45.35196" lon="4.77109">
        <ele>128.772</ele>
        <time>2017-09-04T15:40:44Z</time>
      </trkpt>
      <trkpt lat="45.35202" lon="4.77111">
        <ele>128.459</ele>
        <time>2017-09-04T15:40:54Z</time>
      </trkpt>
      <trkpt lat="45.35207" lon="4.77117">
        <ele>128.242</ele>
        <time>2017-09-04T15:41:21Z</time>
      </trkpt>
      <trkpt lat="45.35206" lon="4.7714">
        <ele>128.904</ele>
        <time>2017-09-04T15:41:36Z</time>
      </trkpt>
      <trkpt lat="45.3521" lon="4.77146">
        <ele>128.822</ele>
        <time>2017-09-04T15:41:44Z</time>
      </trkpt>
      <trkpt lat="45.35216" lon="4.77146">
        <ele>128.186</ele>
        <time>2017-09-04T15:41:52Z</time>
      </trkpt>
      <trkpt lat="45.3522" lon="4.77154">
        <ele>128.592</ele>
        <time>2017-09-04T15:41:59Z</time>
      </trkpt>
      <trkpt lat="45.35221" lon="4.77186">
        <ele>129.318</ele>
        <time>2017-09-04T15:42:16Z</time>
      </trkpt>
      <trkpt lat="45.35217" lon="4.77208">
        <ele>128.848</ele>
        <time>2017-09-04T15:42:33Z</time>
      </trkpt>
      <trkpt lat="45.35204" lon="4.77222">
        <ele>129.356</ele>
        <time>2017-09-04T15:42:51Z</time>
      </trkpt>
      <trkpt lat="45.35196" lon="4.77226">
        <ele>129.24</ele>
        <time>2017-09-04T15:43:01Z</time>
      </trkpt>
      <trkpt lat="45.35194" lon="4.77229">
        <ele>129.467</ele>
        <time>2017-09-04T15:43:04Z</time>
      </trkpt>
      <trkpt lat="45.35186" lon="4.77238">
        <ele>129.507</ele>
        <time>2017-09-04T15:43:16Z</time>
      </trkpt>
      <trkpt lat="45.35175" lon="4.7724">
        <ele>129.098</ele>
        <time>2017-09-04T15:43:27Z</time>
      </trkpt>
      <trkpt lat="45.35165" lon="4.77244">
        <ele>128.938</ele>
        <time>2017-09-04T15:43:36Z</time>
      </trkpt>
      <trkpt lat="45.35152" lon="4.77244">
        <ele>129.067</ele>
        <time>2017-09-04T15:43:48Z</time>
      </trkpt>
      <trkpt lat="45.35149" lon="4.77247">
        <ele>129.533</ele>
        <time>2017-09-04T15:44:18Z</time>
      </trkpt>
      <trkpt lat="45.35141" lon="4.77258">
        <ele>129.935</ele>
        <time>2017-09-04T15:44:27Z</time>
      </trkpt>
      <trkpt lat="45.35138" lon="4.77264">
        <ele>129.716</ele>
        <time>2017-09-04T15:44:32Z</time>
      </trkpt>
      <trkpt lat="45.35138" lon="4.77267">
        <ele>129.722</ele>
        <time>2017-09-04T15:44:34Z</time>
      </trkpt>
      <trkpt lat="45.35141" lon="4.77285">
        <ele>129.5</ele>
        <time>2017-09-04T15:44:47Z</time>
      </trkpt>
      <trkpt lat="45.35144" lon="4.77298">
        <ele>128.459</ele>
        <time>2017-09-04T15:45:10Z</time>
      </trkpt>
      <trkpt lat="45.35144" lon="4.77307">
        <ele>128.382</ele>
        <time>2017-09-04T15:45:15Z</time>
      </trkpt>
      <trkpt lat="45.35144" lon="4.77328">
        <ele>128.494</ele>
        <time>2017-09-04T15:45:25Z</time>
      </trkpt>
      <trkpt lat="45.35138" lon="4.7734">
        <ele>128.779</ele>
        <time>2017-09-04T15:45:35Z</time>
      </trkpt>
      <trkpt lat="45.35134" lon="4.77343">
        <ele>129.007</ele>
        <time>2017-09-04T15:45:40Z</time>
      </trkpt>
      <trkpt lat="45.35124" lon="4.77359">
        <ele>130.27</ele>
        <time>2017-09-04T15:45:53Z</time>
      </trkpt>
      <trkpt lat="45.35115" lon="4.77364">
        <ele>129.582</ele>
        <time>2017-09-04T15:46:06Z</time>
      </trkpt>
      <trkpt lat="45.35108" lon="4.77367">
        <ele>129.041</ele>
        <time>2017-09-04T15:46:13Z</time>
      </trkpt>
      <trkpt lat="45.35095" lon="4.77368">
        <ele>128.564</ele>
        <time>2017-09-04T15:46:25Z</time>
      </trkpt>
      <trkpt lat="45.35096" lon="4.77375">
        <ele>127.521</ele>
        <time>2017-09-04T15:46:36Z</time>
      </trkpt>
      <trkpt lat="45.35104" lon="4.7738">
        <ele>126.969</ele>
        <time>2017-09-04T15:46:46Z</time>
      </trkpt>
      <trkpt lat="45.35104" lon="4.77384">
        <ele>127.067</ele>
        <time>2017-09-04T15:47:14Z</time>
      </trkpt>
      <trkpt lat="45.35104" lon="4.7739">
        <ele>126.698</ele>
        <time>2017-09-04T15:47:24Z</time>
      </trkpt>
      <trkpt lat="45.35105" lon="4.77399">
        <ele>126.548</ele>
        <time>2017-09-04T15:47:36Z</time>
      </trkpt>
      <trkpt lat="45.35114" lon="4.77412">
        <ele>126.298</ele>
        <time>2017-09-04T15:47:59Z</time>
      </trkpt>
      <trkpt lat="45.35122" lon="4.77421">
        <ele>126.076</ele>
        <time>2017-09-04T15:48:25Z</time>
      </trkpt>
      <trkpt lat="45.35122" lon="4.77425">
        <ele>126.49</ele>
        <time>2017-09-04T15:48:30Z</time>
      </trkpt>
      <trkpt lat="45.35127" lon="4.77433">
        <ele>126.795</ele>
        <time>2017-09-04T15:48:36Z</time>
      </trkpt>
      <trkpt lat="45.3513" lon="4.77427">
        <ele>127.176</ele>
        <time>2017-09-04T15:48:42Z</time>
      </trkpt>
      <trkpt lat="45.35136" lon="4.77426">
        <ele>127.803</ele>
        <time>2017-09-04T15:48:47Z</time>
      </trkpt>
      <trkpt lat="45.35151" lon="4.77489">
        <ele>129.135</ele>
        <time>2017-09-04T16:05:36Z</time>
      </trkpt>
      <trkpt lat="45.35154" lon="4.77499">
        <ele>129.035</ele>
        <time>2017-09-04T16:05:43Z</time>
      </trkpt>
      <trkpt lat="45.35157" lon="4.77519">
        <ele>129.107</ele>
        <time>2017-09-04T16:06:03Z</time>
      </trkpt>
      <trkpt lat="45.35159" lon="4.77522">
        <ele>128.584</ele>
        <time>2017-09-04T16:06:13Z</time>
      </trkpt>
      <trkpt lat="45.35166" lon="4.77555">
        <ele>128.349</ele>
        <time>2017-09-04T16:06:33Z</time>
      </trkpt>
      <trkpt lat="45.3517" lon="4.77578">
        <ele>128.463</ele>
        <time>2017-09-04T16:06:48Z</time>
      </trkpt>
      <trkpt lat="45.35177" lon="4.77612">
        <ele>128.058</ele>
        <time>2017-09-04T16:07:09Z</time>
      </trkpt>
      <trkpt lat="45.3518" lon="4.77626">
        <ele>128.104</ele>
        <time>2017-09-04T16:07:17Z</time>
      </trkpt>
      <trkpt lat="45.35183" lon="4.77641">
        <ele>128.206</ele>
        <time>2017-09-04T16:07:29Z</time>
      </trkpt>
      <trkpt lat="45.35185" lon="4.77652">
        <ele>127.874</ele>
        <time>2017-09-04T16:07:36Z</time>
      </trkpt>
      <trkpt lat="45.35187" lon="4.77662">
        <ele>128.248</ele>
        <time>2017-09-04T16:07:40Z</time>
      </trkpt>
      <trkpt lat="45.35187" lon="4.77666">
        <ele>128.097</ele>
        <time>2017-09-04T16:07:43Z</time>
      </trkpt>
      <trkpt lat="45.35189" lon="4.7767">
        <ele>128.239</ele>
        <time>2017-09-04T16:07:47Z</time>
      </trkpt>
      <trkpt lat="45.35196" lon="4.77694">
        <ele>128.004</ele>
        <time>2017-09-04T16:08:03Z</time>
      </trkpt>
      <trkpt lat="45.35201" lon="4.77737">
        <ele>128.029</ele>
        <time>2017-09-04T16:08:28Z</time>
      </trkpt>
      <trkpt lat="45.3521" lon="4.77772">
        <ele>127.946</ele>
        <time>2017-09-04T16:08:49Z</time>
      </trkpt>
      <trkpt lat="45.35218" lon="4.77803">
        <ele>127.579</ele>
        <time>2017-09-04T16:09:10Z</time>
      </trkpt>
      <trkpt lat="45.35224" lon="4.77835">
        <ele>127.573</ele>
        <time>2017-09-04T16:09:29Z</time>
      </trkpt>
      <trkpt lat="45.3523" lon="4.77861">
        <ele>127.867</ele>
        <time>2017-09-04T16:09:44Z</time>
      </trkpt>
      <trkpt lat="45.35237" lon="4.77888">
        <ele>127.266</ele>
        <time>2017-09-04T16:10:01Z</time>
      </trkpt>
      <trkpt lat="45.35238" lon="4.77892">
        <ele>127.329</ele>
        <time>2017-09-04T16:10:03Z</time>
      </trkpt>
      <trkpt lat="45.3524" lon="4.77897">
        <ele>127.357</ele>
        <time>2017-09-04T16:10:07Z</time>
      </trkpt>
      <trkpt lat="45.35247" lon="4.77939">
        <ele>127.115</ele>
        <time>2017-09-04T16:10:31Z</time>
      </trkpt>
      <trkpt lat="45.35253" lon="4.77965">
        <ele>126.912</ele>
        <time>2017-09-04T16:10:50Z</time>
      </trkpt>
      <trkpt lat="45.35256" lon="4.77984">
        <ele>126.774</ele>
        <time>2017-09-04T16:11:08Z</time>
      </trkpt>
      <trkpt lat="45.35265" lon="4.78017">
        <ele>126.73</ele>
        <time>2017-09-04T16:11:28Z</time>
      </trkpt>
      <trkpt lat="45.35267" lon="4.78023">
        <ele>126.642</ele>
        <time>2017-09-04T16:11:32Z</time>
      </trkpt>
      <trkpt lat="45.35273" lon="4.78057">
        <ele>126.869</ele>
        <time>2017-09-04T16:11:52Z</time>
      </trkpt>
      <trkpt lat="45.35279" lon="4.7808">
        <ele>126.95</ele>
        <time>2017-09-04T16:12:07Z</time>
      </trkpt>
      <trkpt lat="45.3528" lon="4.78084">
        <ele>127.203</ele>
        <time>2017-09-04T16:12:09Z</time>
      </trkpt>
      <trkpt lat="45.35286" lon="4.78089">
        <ele>127.022</ele>
        <time>2017-09-04T16:12:15Z</time>
      </trkpt>
      <trkpt lat="45.35306" lon="4.78092">
        <ele>127.251</ele>
        <time>2017-09-04T16:12:32Z</time>
      </trkpt>
      <trkpt lat="45.35311" lon="4.78109">
        <ele>127.687</ele>
        <time>2017-09-04T16:12:46Z</time>
      </trkpt>
      <trkpt lat="45.35314" lon="4.78116">
        <ele>128.058</ele>
        <time>2017-09-04T16:13:04Z</time>
      </trkpt>
      <trkpt lat="45.35315" lon="4.78117">
        <ele>127.078</ele>
        <time>2017-09-04T16:14:22Z</time>
      </trkpt>
      <trkpt lat="45.35314" lon="4.78118">
        <ele>124.952</ele>
        <time>2017-09-04T16:17:44Z</time>
      </trkpt>
      <trkpt lat="45.35314" lon="4.78137">
        <ele>125.872</ele>
        <time>2017-09-04T16:17:56Z</time>
      </trkpt>
    </trkseg>
  </trk>
</gpx>